Terminal Aerodrome Forecast
Issued by NWS Twin Cities, MN

Home | Current Version | Previous Version | Graphics & Text | Print | Product List | Glossary On
Versions: 1 2 3 4 5 6 7 8 9 10 11 12 13
000
FTUS43 KMPX 190846 AAA
TAFSTC
TAF AMD
KSTC 190846Z 1909/2006 12010KT 6SM -RA BR OVC035
     FM191400 18011G18KT P6SM VCSH OVC015
     FM191700 30012G21KT P6SM SCT030 BKN050
     FM200100 32011KT P6SM BKN100=

USA.gov is the U.S. government's official web portal to all federal, state and local government web resources and services.